Time;durP1;ratioP1;P1;durP2;ratioP2;P2;SDS_P1;SDS_P2;PMS_P1;PMS_P2;Temp;Humidity;BMP_temperature;BMP_pressure;BME280_temperature;BME280_humidity;BME280_pressure;Samples;Min_cycle;Max_cycle;Signal;HPM_P1;HPM_P2
2023/05/07 00:02:08;;;;;;;24.80;17.40;;;12.10;99.90;;;;;;4974800;28;20498;-67
2023/05/07 00:04:37;;;;;;;23.95;17.13;;;12.10;99.90;;;;;;4991441;28;20101;-65
2023/05/07 00:07:04;;;;;;;27.05;17.75;;;12.10;99.90;;;;;;4990537;28;20053;-66
2023/05/07 00:09:31;;;;;;;25.48;17.08;;;12.10;99.90;;;;;;4992179;28;20392;-66
2023/05/07 00:11:58;;;;;;;26.15;18.63;;;12.00;99.90;;;;;;4991100;28;21206;-66
2023/05/07 00:14:26;;;;;;;25.02;18.48;;;12.00;99.90;;;;;;4974755;28;20113;-65
2023/05/07 00:16:53;;;;;;;26.05;18.45;;;12.00;99.90;;;;;;4977667;28;20050;-66
2023/05/07 00:19:20;;;;;;;27.00;19.25;;;12.00;99.90;;;;;;4995185;28;20050;-66
2023/05/07 00:21:47;;;;;;;23.88;18.70;;;12.00;99.90;;;;;;4995565;28;20097;-66
2023/05/07 00:24:13;;;;;;;25.40;18.65;;;11.90;99.90;;;;;;4995465;28;20391;-65
2023/05/07 00:26:40;;;;;;;32.42;19.05;;;11.90;99.90;;;;;;4995275;28;20050;-66
2023/05/07 00:29:07;;;;;;;27.20;19.20;;;11.90;99.90;;;;;;4995382;28;20046;-65
2023/05/07 00:31:35;;;;;;;25.95;18.52;;;11.80;99.90;;;;;;4995093;28;20101;-66
2023/05/07 00:34:02;;;;;;;26.05;18.42;;;11.80;99.90;;;;;;4995240;28;20096;-66
2023/05/07 00:36:30;;;;;;;27.48;18.73;;;11.80;99.90;;;;;;4978264;28;20050;-66
2023/05/07 00:39:00;;;;;;;28.13;18.52;;;11.80;99.90;;;;;;4977355;28;20454;-66
2023/05/07 00:41:26;;;;;;;28.08;19.77;;;11.80;99.90;;;;;;4977945;28;20055;-66
2023/05/07 00:43:53;;;;;;;27.40;18.98;;;11.70;99.90;;;;;;4961911;28;20050;-66
2023/05/07 00:46:22;;;;;;;31.77;19.80;;;11.70;99.90;;;;;;4993924;28;20065;-66
2023/05/07 00:48:51;;;;;;;27.50;18.80;;;11.70;99.90;;;;;;4976744;28;20043;-66
2023/05/07 00:51:18;;;;;;;28.95;19.92;;;11.70;99.90;;;;;;4994789;28;20042;-66
2023/05/07 00:53:46;;;;;;;27.92;19.77;;;11.60;99.90;;;;;;4994268;28;20078;-66
2023/05/07 00:56:13;;;;;;;24.35;19.20;;;11.70;99.90;;;;;;4961808;28;20086;-66
2023/05/07 00:58:41;;;;;;;25.85;18.33;;;11.60;99.90;;;;;;4994195;28;20046;-66
2023/05/07 01:01:08;;;;;;;28.30;19.95;;;11.60;99.90;;;;;;4975882;28;20420;-66
2023/05/07 01:03:35;;;;;;;26.45;20.02;;;11.60;99.90;;;;;;4976787;28;20070;-67
2023/05/07 01:06:04;;;;;;;27.65;20.17;;;11.60;99.90;;;;;;4993184;28;20066;-67
2023/05/07 01:08:32;;;;;;;28.45;20.75;;;11.60;99.90;;;;;;4994268;28;20053;-65
2023/05/07 01:11:00;;;;;;;28.33;20.50;;;11.50;99.90;;;;;;4977115;28;20056;-66
2023/05/07 01:13:28;;;;;;;27.60;21.02;;;11.50;99.90;;;;;;4958978;28;20047;-66
2023/05/07 01:15:55;;;;;;;29.92;21.70;;;11.50;99.90;;;;;;4993091;28;20042;-66
2023/05/07 01:18:22;;;;;;;29.83;21.17;;;11.50;99.90;;;;;;4959163;28;20050;-66
2023/05/07 01:20:48;;;;;;;29.35;20.52;;;11.50;99.90;;;;;;4993020;28;20058;-66
2023/05/07 01:23:18;;;;;;;29.27;20.83;;;11.50;99.90;;;;;;4977004;28;20054;-66
2023/05/07 01:25:52;;;;;;;30.20;20.67;;;11.50;99.90;;;;;;4976855;28;20577;-66
2023/05/07 01:28:19;;;;;;;31.52;20.98;;;11.50;99.90;;;;;;4975519;28;20058;-65
2023/05/07 01:30:49;;;;;;;29.15;21.92;;;11.50;99.90;;;;;;4976867;28;20050;-66
2023/05/07 01:33:18;;;;;;;29.93;21.37;;;11.50;99.90;;;;;;4958725;28;20047;-66
2023/05/07 01:35:48;;;;;;;34.33;22.00;;;11.50;99.90;;;;;;4992875;28;20491;-66
2023/05/07 01:38:15;;;;;;;33.17;21.95;;;11.40;99.90;;;;;;4994309;28;20093;-66
2023/05/07 01:40:44;;;;;;;30.50;22.35;;;11.40;99.90;;;;;;4958640;28;20455;-66
2023/05/07 01:43:11;;;;;;;33.65;23.15;;;11.40;99.90;;;;;;4958056;28;20105;-66
2023/05/07 01:45:39;;;;;;;34.90;22.80;;;11.30;99.90;;;;;;4974884;28;20054;-67
2023/05/07 01:48:09;;;;;;;32.38;23.58;;;12.00;99.90;;;;;;4976705;28;20046;-65
2023/05/07 01:50:37;;;;;;;28.73;21.58;;;11.30;99.90;;;;;;4993456;28;20042;-65
2023/05/07 01:53:04;;;;;;;31.35;22.15;;;11.30;99.90;;;;;;4976639;28;20380;-66
2023/05/07 01:55:31;;;;;;;33.03;22.90;;;11.40;99.90;;;;;;4976640;28;20050;-67
2023/05/07 01:57:59;;;;;;;30.45;21.50;;;11.30;99.90;;;;;;4976394;28;20099;-67
2023/05/07 02:00:27;;;;;;;30.48;21.60;;;11.30;99.90;;;;;;4976264;28;20572;-67
2023/05/07 02:02:53;;;;;;;35.28;21.83;;;11.30;99.90;;;;;;4976643;28;20046;-67
2023/05/07 02:05:20;;;;;;;28.02;21.17;;;11.30;99.90;;;;;;4975709;28;20807;-67
2023/05/07 02:07:47;;;;;;;28.42;21.15;;;11.30;99.90;;;;;;4976473;28;20166;-67
2023/05/07 02:10:14;;;;;;;28.30;20.48;;;11.20;99.90;;;;;;4976040;28;20549;-67
2023/05/07 02:12:42;;;;;;;29.10;22.20;;;11.20;99.90;;;;;;4976277;28;20482;-67
2023/05/07 02:15:11;;;;;;;27.58;21.05;;;11.20;99.90;;;;;;4993640;28;20046;-67
2023/05/07 02:17:58;;;;;;;30.90;20.58;;;11.10;99.90;;;;;;4975585;28;20056;-66
2023/05/07 02:20:25;;;;;;;31.67;22.02;;;11.10;99.90;;;;;;4993353;28;20046;-66
2023/05/07 02:22:52;;;;;;;31.05;20.73;;;11.10;99.90;;;;;;4993347;28;20058;-66
2023/05/07 02:25:18;;;;;;;32.65;20.98;;;11.20;99.90;;;;;;4992815;28;20050;-66
2023/05/07 02:27:45;;;;;;;33.80;23.65;;;11.10;99.90;;;;;;4993160;28;20456;-66
2023/05/07 02:30:15;;;;;;;31.70;21.95;;;11.00;99.90;;;;;;4992992;28;20494;-66
2023/05/07 02:32:42;;;;;;;30.52;21.33;;;11.10;99.90;;;;;;4975043;28;20050;-67
2023/05/07 02:35:09;;;;;;;33.75;23.75;;;11.10;99.90;;;;;;4976416;28;20055;-67
2023/05/07 02:37:36;;;;;;;30.63;22.02;;;11.10;99.90;;;;;;4975853;28;20046;-67
2023/05/07 02:40:04;;;;;;;32.63;22.30;;;11.10;99.90;;;;;;4992060;28;20050;-66
2023/05/07 02:42:31;;;;;;;32.08;22.13;;;11.10;99.90;;;;;;4974176;28;20047;-66
2023/05/07 02:44:58;;;;;;;32.70;21.85;;;11.10;99.90;;;;;;4975701;28;20050;-66
2023/05/07 02:47:28;;;;;;;32.22;20.73;;;11.10;99.90;;;;;;4975702;28;20411;-66
2023/05/07 02:49:55;;;;;;;33.95;22.98;;;11.10;99.90;;;;;;4975740;28;20409;-66
2023/05/07 02:52:22;;;;;;;31.30;21.52;;;11.10;99.90;;;;;;4974835;28;20042;-66
2023/05/07 02:54:49;;;;;;;30.77;21.27;;;11.10;99.90;;;;;;4972917;28;20059;-66
2023/05/07 02:57:15;;;;;;;30.70;22.00;;;11.10;99.90;;;;;;4974176;28;20085;-66
2023/05/07 02:59:42;;;;;;;32.70;23.08;;;11.00;99.90;;;;;;4992136;28;20042;-65
2023/05/07 03:02:09;;;;;;;29.45;22.45;;;11.00;99.90;;;;;;4975461;28;20092;-66
2023/05/07 03:04:38;;;;;;;31.42;22.20;;;11.00;99.90;;;;;;4975384;28;20488;-65
2023/05/07 03:07:05;;;;;;;30.23;21.83;;;11.00;99.90;;;;;;4974750;28;20058;-66
2023/05/07 03:09:32;;;;;;;36.20;22.55;;;11.00;99.90;;;;;;4974558;28;20050;-66
2023/05/07 03:11:59;;;;;;;32.67;22.45;;;11.00;99.90;;;;;;4974240;28;20050;-66
2023/05/07 03:14:26;;;;;;;30.02;23.60;;;11.00;99.90;;;;;;4973676;28;20043;-66
2023/05/07 03:16:53;;;;;;;32.78;22.75;;;11.00;99.90;;;;;;4974140;28;20054;-66
2023/05/07 03:19:20;;;;;;;35.60;23.63;;;11.00;99.90;;;;;;4956971;28;20101;-66
2023/05/07 03:21:49;;;;;;;33.03;23.42;;;11.00;99.90;;;;;;4973409;28;20065;-66
2023/05/07 03:24:16;;;;;;;35.90;24.73;;;11.00;99.90;;;;;;4992251;28;20443;-66
2023/05/07 03:26:42;;;;;;;35.58;23.17;;;11.00;99.90;;;;;;4992345;28;20054;-66
2023/05/07 03:29:09;;;;;;;36.67;23.27;;;11.00;99.90;;;;;;4991963;28;20058;-67
2023/05/07 03:31:36;;;;;;;34.42;24.00;;;11.00;99.90;;;;;;4991975;28;20131;-66
2023/05/07 03:34:03;;;;;;;35.45;23.48;;;11.00;99.90;;;;;;4974959;28;20491;-66
2023/05/07 03:36:30;;;;;;;37.78;24.17;;;10.90;99.90;;;;;;4991440;28;20503;-65
2023/05/07 03:38:58;;;;;;;34.15;23.88;;;10.90;99.90;;;;;;4992359;28;20458;-65
2023/05/07 03:41:25;;;;;;;32.33;23.23;;;10.90;99.90;;;;;;4991371;28;20399;-66
2023/05/07 03:43:52;;;;;;;34.03;23.83;;;10.80;99.90;;;;;;4974832;28;20045;-65
2023/05/07 03:46:19;;;;;;;35.72;24.73;;;10.80;99.90;;;;;;4973753;28;20117;-66
2023/05/07 03:48:46;;;;;;;31.13;22.85;;;10.80;99.90;;;;;;4973461;28;20108;-66
2023/05/07 03:51:12;;;;;;;34.75;23.02;;;10.80;99.90;;;;;;4994499;28;20058;-66
2023/05/07 03:53:39;;;;;;;31.50;23.92;;;10.90;99.90;;;;;;4995761;28;20054;-66
2023/05/07 03:56:08;;;;;;;33.33;22.98;;;10.80;99.90;;;;;;4995460;28;20072;-65
2023/05/07 03:58:35;;;;;;;35.85;24.33;;;10.80;99.90;;;;;;4978339;28;20101;-66
2023/05/07 04:01:01;;;;;;;29.88;21.98;;;10.80;99.90;;;;;;4978603;28;20177;-66
2023/05/07 04:03:28;;;;;;;31.17;22.13;;;10.80;99.90;;;;;;4977801;28;20050;-67
2023/05/07 04:05:55;;;;;;;38.50;23.27;;;10.80;99.90;;;;;;4996136;28;20118;-67
2023/05/07 04:08:22;;;;;;;32.55;22.05;;;10.80;99.90;;;;;;4995880;28;20092;-67
2023/05/07 04:10:49;;;;;;;36.17;23.88;;;10.80;99.90;;;;;;4995060;28;20043;-67
2023/05/07 04:13:17;;;;;;;31.83;21.20;;;10.80;99.90;;;;;;4977443;28;20053;-66
2023/05/07 04:15:46;;;;;;;34.45;22.88;;;10.80;99.90;;;;;;4960218;28;20101;-67
2023/05/07 04:18:13;;;;;;;30.02;22.33;;;10.70;99.90;;;;;;4993847;28;20046;-67
2023/05/07 04:20:39;;;;;;;34.75;22.98;;;10.70;99.90;;;;;;4995501;28;20140;-67
2023/05/07 04:23:06;;;;;;;35.58;22.42;;;10.70;99.90;;;;;;4995487;28;20404;-65
2023/05/07 04:25:34;;;;;;;31.70;22.00;;;10.70;99.90;;;;;;4994797;28;20514;-65
2023/05/07 04:28:01;;;;;;;32.58;23.00;;;10.70;99.90;;;;;;4977851;28;20046;-65
2023/05/07 04:30:29;;;;;;;36.70;22.45;;;10.60;99.90;;;;;;4978041;28;20101;-66
2023/05/07 04:32:56;;;;;;;34.72;22.33;;;10.70;99.90;;;;;;4977325;28;20046;-67
2023/05/07 04:35:23;;;;;;;32.42;22.15;;;10.70;99.90;;;;;;4977159;28;20082;-66
2023/05/07 04:37:50;;;;;;;30.38;21.60;;;10.70;99.90;;;;;;4959173;28;20042;-66
2023/05/07 04:40:17;;;;;;;33.15;23.33;;;10.70;99.90;;;;;;4976831;28;20411;-66
2023/05/07 04:42:44;;;;;;;34.60;23.17;;;10.70;99.90;;;;;;4976775;28;20110;-66
2023/05/07 04:45:12;;;;;;;34.15;22.42;;;10.70;99.90;;;;;;4976592;28;20054;-65
2023/05/07 04:47:40;;;;;;;33.35;22.35;;;10.70;99.90;;;;;;4976633;28;20108;-66
2023/05/07 04:50:08;;;;;;;30.20;20.85;;;10.70;99.90;;;;;;4976472;28;20395;-66
2023/05/07 04:52:35;;;;;;;33.45;23.05;;;10.70;99.90;;;;;;4994272;28;20486;-66
2023/05/07 04:55:02;;;;;;;32.67;22.27;;;10.70;99.90;;;;;;4977678;28;20042;-66
2023/05/07 04:57:29;;;;;;;45.95;22.33;;;10.70;99.90;;;;;;4977499;28;20050;-67
2023/05/07 04:59:56;;;;;;;29.83;20.42;;;10.70;99.90;;;;;;4977205;28;20108;-67
2023/05/07 05:02:23;;;;;;;31.50;22.38;;;10.70;99.90;;;;;;4959009;28;20101;-66
2023/05/07 05:04:51;;;;;;;28.42;19.90;;;10.70;99.90;;;;;;4993968;28;20047;-67
2023/05/07 05:07:18;;;;;;;29.02;19.88;;;10.70;99.90;;;;;;4994501;28;20052;-67
2023/05/07 05:09:44;;;;;;;28.42;19.85;;;10.70;99.90;;;;;;4994961;28;20050;-67
2023/05/07 05:12:11;;;;;;;31.23;21.15;;;10.70;99.90;;;;;;4975222;28;20061;-66
2023/05/07 05:14:38;;;;;;;28.90;21.23;;;10.70;99.90;;;;;;4976749;28;20463;-65
2023/05/07 05:17:05;;;;;;;27.42;19.85;;;10.60;99.90;;;;;;4975534;28;20454;-66
2023/05/07 05:19:32;;;;;;;33.38;20.70;;;10.70;99.90;;;;;;4977411;28;20113;-66
2023/05/07 05:22:03;;;;;;;30.48;19.70;;;10.70;99.90;;;;;;4993832;28;20125;-65
2023/05/07 05:24:30;;;;;;;29.48;20.10;;;10.70;99.90;;;;;;4994189;28;20137;-65
2023/05/07 05:26:57;;;;;;;30.77;20.23;;;10.80;99.90;;;;;;4976645;28;20046;-65
2023/05/07 05:29:24;;;;;;;26.08;19.58;;;10.80;99.90;;;;;;4994270;28;20050;-66
2023/05/07 05:31:51;;;;;;;28.38;20.48;;;10.80;99.90;;;;;;4977110;28;20125;-65
2023/05/07 05:34:19;;;;;;;27.85;20.92;;;10.80;99.90;;;;;;4993680;28;20104;-65
2023/05/07 05:36:46;;;;;;;27.33;20.05;;;10.70;99.90;;;;;;4994468;28;20077;-65
2023/05/07 05:39:14;;;;;;;24.92;19.48;;;10.80;99.90;;;;;;4976010;28;20388;-65
2023/05/07 05:41:41;;;;;;;29.67;20.52;;;10.70;99.90;;;;;;4975476;28;20450;-65
2023/05/07 05:44:08;;;;;;;25.92;19.27;;;10.80;99.90;;;;;;4976878;28;20525;-65
2023/05/07 05:46:35;;;;;;;30.98;19.70;;;10.80;99.90;;;;;;4994044;28;20573;-65
2023/05/07 05:49:02;;;;;;;26.20;18.30;;;10.80;99.90;;;;;;4976337;28;20518;-65
2023/05/07 05:51:29;;;;;;;28.70;21.30;;;10.80;99.90;;;;;;4993692;28;20462;-67
2023/05/07 05:53:56;;;;;;;24.85;18.83;;;10.80;99.90;;;;;;4959980;28;20451;-69
2023/05/07 05:56:24;;;;;;;26.05;18.48;;;10.80;99.90;;;;;;4973051;28;20566;-68
2023/05/07 05:58:51;;;;;;;25.98;19.05;;;10.70;99.90;;;;;;4975245;28;20050;-68
2023/05/07 06:01:18;;;;;;;24.45;17.83;;;10.70;99.90;;;;;;4976401;28;20486;-65
2023/05/07 06:03:45;;;;;;;27.80;19.95;;;10.80;99.90;;;;;;4993391;28;20077;-66
2023/05/07 06:06:14;;;;;;;24.45;18.60;;;10.70;99.90;;;;;;4976540;28;20089;-64
2023/05/07 06:08:44;;;;;;;25.75;18.98;;;10.80;99.90;;;;;;4993415;28;20065;-65
2023/05/07 06:11:11;;;;;;;28.23;20.50;;;10.80;99.90;;;;;;4975639;28;20498;-66
2023/05/07 06:13:39;;;;;;;26.40;18.75;;;10.80;99.90;;;;;;4992767;28;20477;-68
2023/05/07 06:16:07;;;;;;;24.77;18.50;;;10.90;99.90;;;;;;4993578;28;20057;-66
2023/05/07 06:18:35;;;;;;;25.67;18.80;;;10.90;99.90;;;;;;4975806;28;20086;-66
2023/05/07 06:21:02;;;;;;;23.50;18.77;;;11.00;99.90;;;;;;4993640;28;20133;-66
2023/05/07 06:23:29;;;;;;;25.85;19.60;;;11.00;99.90;;;;;;4975427;28;20536;-66
2023/05/07 06:25:56;;;;;;;23.52;17.83;;;11.10;99.90;;;;;;4993172;28;20414;-64
2023/05/07 06:28:23;;;;;;;24.83;18.63;;;11.10;99.90;;;;;;4976076;28;20075;-66
2023/05/07 06:30:51;;;;;;;23.17;17.50;;;11.10;99.90;;;;;;4968764;28;20584;-65
2023/05/07 06:33:19;;;;;;;23.80;16.88;;;11.10;99.90;;;;;;4976218;28;20186;-66
2023/05/07 06:35:46;;;;;;;22.70;16.85;;;11.20;99.90;;;;;;4974131;28;20055;-66
2023/05/07 06:38:13;;;;;;;22.52;16.50;;;11.20;99.90;;;;;;4965230;28;20058;-66
2023/05/07 06:40:40;;;;;;;23.40;17.45;;;11.30;99.90;;;;;;4963359;28;20097;-66
2023/05/07 06:43:07;;;;;;;23.45;17.65;;;11.30;99.90;;;;;;4981447;28;20122;-66
2023/05/07 06:45:33;;;;;;;23.58;18.17;;;11.30;99.90;;;;;;4979944;28;20141;-66
2023/05/07 06:48:02;;;;;;;22.92;17.00;;;11.30;99.90;;;;;;4968356;28;20101;-66
2023/05/07 06:50:28;;;;;;;22.73;16.60;;;11.40;99.90;;;;;;4971478;28;20105;-66
2023/05/07 06:52:55;;;;;;;20.35;15.85;;;11.40;99.90;;;;;;4961476;28;20058;-66
2023/05/07 06:55:22;;;;;;;22.67;17.00;;;11.50;99.90;;;;;;4966380;28;20051;-66
2023/05/07 06:57:49;;;;;;;23.08;17.23;;;11.60;99.90;;;;;;4980457;28;20055;-66
2023/05/07 07:00:16;;;;;;;25.58;17.30;;;11.60;99.90;;;;;;4965935;28;20106;-66
2023/05/07 07:02:43;;;;;;;22.13;16.83;;;11.60;99.90;;;;;;4957473;28;20566;-66
2023/05/07 07:05:11;;;;;;;25.58;16.02;;;11.50;99.90;;;;;;4984870;28;20089;-65
2023/05/07 07:07:38;;;;;;;21.45;15.57;;;11.50;99.90;;;;;;4956752;28;20055;-65
2023/05/07 07:10:06;;;;;;;23.02;16.38;;;11.50;99.90;;;;;;4965140;28;20520;-65
2023/05/07 07:12:33;;;;;;;25.52;17.60;;;11.50;99.90;;;;;;4973036;28;20455;-66
2023/05/07 07:15:00;;;;;;;22.77;16.13;;;11.50;99.90;;;;;;4961532;28;20046;-66
2023/05/07 07:17:27;;;;;;;24.08;16.42;;;11.50;99.90;;;;;;4968690;28;20047;-66
2023/05/07 07:19:53;;;;;;;20.98;15.65;;;11.40;99.90;;;;;;4977594;28;20495;-66
2023/05/07 07:22:22;;;;;;;22.98;16.58;;;11.40;99.90;;;;;;4971867;28;20104;-66
2023/05/07 07:24:48;;;;;;;23.48;16.17;;;11.40;99.90;;;;;;4975218;28;20058;-66
2023/05/07 07:27:15;;;;;;;25.60;16.92;;;11.40;99.90;;;;;;4989108;28;20050;-66
2023/05/07 07:29:42;;;;;;;23.30;17.10;;;11.50;99.90;;;;;;4975132;28;20054;-66
2023/05/07 07:32:09;;;;;;;25.42;17.05;;;11.50;99.90;;;;;;4989693;28;20458;-65
2023/05/07 07:34:36;;;;;;;23.58;17.23;;;11.50;99.90;;;;;;4976581;28;20042;-66
2023/05/07 07:37:05;;;;;;;23.25;16.70;;;11.50;99.90;;;;;;4971763;28;20054;-66
2023/05/07 07:39:33;;;;;;;25.60;17.73;;;11.50;99.90;;;;;;4976118;28;20054;-65
2023/05/07 07:42:00;;;;;;;23.55;16.45;;;11.60;99.90;;;;;;4971028;28;20062;-66
2023/05/07 07:44:28;;;;;;;24.33;17.42;;;11.60;99.90;;;;;;4964281;28;20110;-66
2023/05/07 07:46:55;;;;;;;24.67;17.45;;;11.70;99.90;;;;;;4968466;28;20070;-66
2023/05/07 07:49:22;;;;;;;24.50;15.98;;;11.70;99.90;;;;;;4973240;28;20042;-67
2023/05/07 07:51:48;;;;;;;23.17;17.08;;;11.70;99.90;;;;;;4964733;28;20062;-65
2023/05/07 07:54:16;;;;;;;23.38;16.70;;;11.80;99.90;;;;;;4960423;28;20137;-66
2023/05/07 07:56:44;;;;;;;25.67;17.80;;;11.80;99.90;;;;;;4975170;28;20057;-65
2023/05/07 07:59:11;;;;;;;22.85;16.70;;;12.00;99.90;;;;;;4975319;28;20455;-66
2023/05/07 08:01:38;;;;;;;25.98;17.92;;;12.00;99.90;;;;;;4977300;28;20046;-66
2023/05/07 08:04:05;;;;;;;23.17;16.38;;;12.20;99.90;;;;;;4974679;28;20050;-67
2023/05/07 08:06:32;;;;;;;24.10;16.50;;;12.30;99.90;;;;;;4975585;28;20514;-66
2023/05/07 08:08:59;;;;;;;22.90;17.02;;;12.20;99.90;;;;;;4970305;28;20062;-66
2023/05/07 08:11:26;;;;;;;27.45;18.27;;;12.20;99.90;;;;;;4968488;28;20065;-66
2023/05/07 08:13:55;;;;;;;24.75;19.35;;;12.30;99.90;;;;;;4967853;28;20051;-66
2023/05/07 08:16:22;;;;;;;25.63;17.25;;;12.20;99.90;;;;;;4962894;28;20083;-65
2023/05/07 08:18:48;;;;;;;25.80;18.38;;;12.30;99.90;;;;;;4975392;28;20050;-64
2023/05/07 08:21:15;;;;;;;21.60;16.55;;;12.30;99.90;;;;;;4965509;28;20058;-65
2023/05/07 08:23:42;;;;;;;24.30;17.92;;;12.30;99.90;;;;;;4970786;28;20499;-66
2023/05/07 08:26:09;;;;;;;22.25;16.45;;;12.40;99.90;;;;;;4973208;28;20418;-66
2023/05/07 08:28:36;;;;;;;24.85;17.23;;;12.40;99.90;;;;;;4980408;28;20057;-65
2023/05/07 08:31:05;;;;;;;23.13;16.92;;;12.50;99.90;;;;;;4974445;28;20470;-66
2023/05/07 08:33:32;;;;;;;28.30;17.05;;;12.60;99.90;;;;;;4968826;28;20046;-65
2023/05/07 08:35:58;;;;;;;23.63;17.25;;;12.70;99.90;;;;;;4979818;28;20078;-67
2023/05/07 08:38:25;;;;;;;26.27;17.40;;;12.80;99.90;;;;;;4968835;28;20113;-66
2023/05/07 08:40:52;;;;;;;21.85;16.40;;;12.80;99.90;;;;;;4980900;28;20051;-67
2023/05/07 08:43:20;;;;;;;23.08;17.08;;;12.80;99.90;;;;;;4987954;28;20046;-66
2023/05/07 08:45:50;;;;;;;22.95;17.20;;;12.90;99.90;;;;;;4961038;28;20113;-65
2023/05/07 08:48:18;;;;;;;24.13;17.10;;;12.90;99.90;;;;;;4966159;28;20050;-65
2023/05/07 08:50:46;;;;;;;23.35;17.42;;;13.00;99.90;;;;;;4976555;28;20046;-65
2023/05/07 08:53:13;;;;;;;23.08;16.90;;;12.90;99.90;;;;;;4964965;28;20130;-66
2023/05/07 08:55:40;;;;;;;22.90;16.45;;;13.00;99.90;;;;;;4975670;28;20102;-66
2023/05/07 08:58:07;;;;;;;23.40;16.50;;;13.20;99.90;;;;;;4981546;28;20055;-66
2023/05/07 09:00:36;;;;;;;24.27;16.98;;;13.30;99.90;;;;;;4975405;28;20066;-66
2023/05/07 09:03:03;;;;;;;21.65;16.58;;;13.60;99.90;;;;;;4980721;28;20046;-66
2023/05/07 09:05:31;;;;;;;22.88;16.33;;;13.80;99.90;;;;;;4966823;28;21231;-65
2023/05/07 09:08:00;;;;;;;22.67;16.88;;;14.10;99.90;;;;;;4986753;28;20054;-65
2023/05/07 09:10:27;;;;;;;21.75;15.07;;;14.40;99.90;;;;;;4965955;28;20126;-65
2023/05/07 09:12:54;;;;;;;23.92;16.27;;;14.50;99.90;;;;;;4967970;28;20062;-65
2023/05/07 09:15:21;;;;;;;23.73;16.48;;;14.60;99.90;;;;;;4983163;28;20042;-66
2023/05/07 09:17:48;;;;;;;23.55;16.75;;;14.60;99.90;;;;;;4967887;28;20100;-65
2023/05/07 09:20:16;;;;;;;21.38;15.60;;;14.50;99.90;;;;;;4984629;28;20043;-66
2023/05/07 09:22:45;;;;;;;24.50;16.55;;;14.60;99.90;;;;;;4965573;28;20543;-66
2023/05/07 09:25:12;;;;;;;20.73;15.93;;;14.70;99.90;;;;;;4979214;28;20504;-66
2023/05/07 09:27:39;;;;;;;20.17;15.68;;;14.60;99.90;;;;;;4972874;28;20475;-66
2023/05/07 09:30:06;;;;;;;20.95;15.73;;;14.50;99.90;;;;;;4962511;28;20043;-66
2023/05/07 09:32:37;;;;;;;20.10;15.30;;;14.60;99.90;;;;;;4968422;28;20054;-65
2023/05/07 09:35:05;;;;;;;23.15;16.23;;;14.70;99.90;;;;;;4967309;28;20046;-65
2023/05/07 09:37:32;;;;;;;22.90;16.25;;;14.50;99.90;;;;;;4962431;28;20046;-65
2023/05/07 09:40:00;;;;;;;20.92;17.05;;;14.70;99.90;;;;;;4979457;28;20058;-66
2023/05/07 09:42:28;;;;;;;20.45;15.63;;;14.70;99.90;;;;;;4976079;28;20097;-65
2023/05/07 09:44:55;;;;;;;20.27;15.07;;;14.80;99.90;;;;;;4963570;28;20434;-65
2023/05/07 09:47:25;;;;;;;21.70;16.42;;;14.90;99.90;;;;;;4966335;28;20521;-67
2023/05/07 09:49:57;;;;;;;20.67;15.57;;;15.20;99.90;;;;;;4981073;28;20392;-66
2023/05/07 09:52:24;;;;;;;22.05;16.50;;;15.50;99.90;;;;;;4971929;28;20158;-66
2023/05/07 09:54:52;;;;;;;19.88;14.98;;;15.40;99.90;;;;;;4975778;28;20046;-66
2023/05/07 09:57:22;;;;;;;27.30;17.02;;;15.40;99.90;;;;;;4983708;28;20453;-66
2023/05/07 09:59:51;;;;;;;22.58;16.40;;;15.30;99.90;;;;;;4965411;28;20109;-67
2023/05/07 10:02:20;;;;;;;21.20;16.10;;;15.40;99.90;;;;;;4982268;28;20081;-66
2023/05/07 10:04:49;;;;;;;19.58;15.55;;;15.70;99.90;;;;;;4975826;28;20050;-67
2023/05/07 10:07:17;;;;;;;22.75;15.98;;;15.70;99.90;;;;;;4987060;28;20039;-65
2023/05/07 10:09:46;;;;;;;20.85;16.30;;;15.80;99.90;;;;;;4981986;28;20054;-66
2023/05/07 10:12:13;;;;;;;18.70;15.07;;;15.70;99.90;;;;;;4981760;28;20097;-66
2023/05/07 10:14:41;;;;;;;21.27;16.05;;;15.90;99.90;;;;;;4958645;28;20459;-66
2023/05/07 10:17:11;;;;;;;19.95;15.60;;;16.00;99.90;;;;;;4965776;28;20050;-67
2023/05/07 10:19:40;;;;;;;18.83;14.35;;;16.00;99.90;;;;;;4961361;28;20081;-67
2023/05/07 10:22:08;;;;;;;20.55;15.05;;;15.90;99.90;;;;;;4979405;28;20054;-67
2023/05/07 10:24:37;;;;;;;22.30;15.48;;;16.10;99.90;;;;;;4961874;28;20058;-65
2023/05/07 10:27:09;;;;;;;19.23;15.13;;;16.30;99.90;;;;;;4978359;28;20046;-65
2023/05/07 10:29:46;;;;;;;19.45;14.95;;;16.30;99.90;;;;;;4979159;28;20097;-66
2023/05/07 10:32:34;;;;;;;20.77;15.20;;;16.50;99.90;;;;;;4961957;28;20059;-66
2023/05/07 10:35:04;;;;;;;18.13;14.20;;;16.90;99.90;;;;;;4977332;28;20775;-66
2023/05/07 10:37:31;;;;;;;19.20;14.18;;;17.20;99.90;;;;;;4958550;28;20815;-67
2023/05/07 10:39:58;;;;;;;16.48;13.10;;;17.70;99.90;;;;;;4985374;28;20085;-67
2023/05/07 10:42:26;;;;;;;16.38;13.02;;;18.10;99.90;;;;;;4976857;28;20039;-67
2023/05/07 10:44:54;;;;;;;17.10;13.07;;;18.80;99.90;;;;;;4981748;28;20457;-67
2023/05/07 10:47:21;;;;;;;19.45;14.35;;;19.20;99.90;;;;;;4978179;28;20054;-67
2023/05/07 10:50:21;;;;;;;16.17;12.75;;;19.20;99.90;;;;;;4980497;28;20446;-67
2023/05/07 10:53:28;;;;;;;16.45;13.27;;;19.60;99.90;;;;;;4977565;28;20074;-67
2023/05/07 10:56:27;;;;;;;17.70;12.80;;;19.60;99.90;;;;;;4963857;28;20046;-67
2023/05/07 10:58:54;;;;;;;16.00;12.63;;;19.80;99.90;;;;;;4980313;28;20047;-66
2023/05/07 11:01:53;;;;;;;14.27;12.13;;;20.00;99.90;;;;;;4963142;28;20454;-66
2023/05/07 11:04:24;;;;;;;15.88;12.02;;;19.80;99.90;;;;;;4971481;28;20054;-66
2023/05/07 11:07:25;;;;;;;15.63;12.35;;;19.70;99.90;;;;;;4978717;28;20410;-66
2023/05/07 11:10:01;;;;;;;15.73;11.70;;;20.00;99.90;;;;;;4962810;28;20054;-66
2023/05/07 11:12:50;;;;;;;16.17;12.25;;;20.10;99.90;;;;;;4978331;28;20057;-65
2023/05/07 11:15:38;;;;;;;14.18;11.93;;;20.70;99.90;;;;;;4981175;28;20110;-67
2023/05/07 11:18:06;;;;;;;13.02;10.75;;;20.60;99.90;;;;;;4963622;28;20058;-67
2023/05/07 11:20:57;;;;;;;14.57;11.30;;;21.00;99.90;;;;;;4980130;28;20042;-67
2023/05/07 11:24:09;;;;;;;13.77;10.65;;;21.20;99.90;;;;;;4979919;28;20090;-67
2023/05/07 11:26:44;;;;;;;13.75;10.57;;;21.40;99.90;;;;;;4981694;28;20134;-67
2023/05/07 11:29:13;;;;;;;12.45;10.32;;;21.40;99.90;;;;;;4961933;28;20617;-67
2023/05/07 11:31:40;;;;;;;12.23;10.45;;;21.30;99.90;;;;;;4978745;28;20047;-66
2023/05/07 11:34:09;;;;;;;12.63;11.27;;;21.20;99.90;;;;;;4958762;28;20101;-67
2023/05/07 11:36:41;;;;;;;13.40;10.93;;;21.50;99.90;;;;;;4978037;28;20137;-67
2023/05/07 11:39:24;;;;;;;12.23;10.88;;;21.50;99.90;;;;;;4975407;28;20479;-68
2023/05/07 11:41:51;;;;;;;12.65;10.93;;;22.00;99.90;;;;;;4977836;28;20208;-67
2023/05/07 11:44:18;;;;;;;12.68;10.75;;;22.00;99.90;;;;;;4967335;28;20054;-67
2023/05/07 11:46:45;;;;;;;11.55;9.73;;;22.20;99.90;;;;;;4978136;28;20043;-66
2023/05/07 11:49:13;;;;;;;10.73;8.88;;;22.50;99.90;;;;;;4979247;28;20051;-66
2023/05/07 11:51:41;;;;;;;12.73;10.60;;;22.90;99.90;;;;;;4983490;28;20101;-66
2023/05/07 11:54:11;;;;;;;13.77;10.38;;;23.10;99.90;;;;;;4959489;28;20062;-67
2023/05/07 11:56:38;;;;;;;11.80;10.13;;;22.60;99.90;;;;;;4975408;28;20049;-67
2023/05/07 11:59:05;;;;;;;11.13;9.93;;;23.30;99.90;;;;;;4963855;28;20140;-67
2023/05/07 12:01:32;;;;;;;13.10;11.30;;;23.30;99.90;;;;;;4959781;28;20050;-67
2023/05/07 12:03:59;;;;;;;10.32;9.25;;;23.20;99.90;;;;;;4966290;28;20491;-67
2023/05/07 12:06:27;;;;;;;12.68;9.57;;;23.50;99.70;;;;;;4979807;28;20180;-68
2023/05/07 12:08:54;;;;;;;11.95;9.80;;;23.80;99.00;;;;;;4980265;28;20062;-67
2023/05/07 12:11:25;;;;;;;10.98;9.80;;;23.70;98.80;;;;;;4967936;28;20051;-67
2023/05/07 12:13:51;;;;;;;11.00;9.48;;;24.00;98.00;;;;;;4991226;28;20046;-66
2023/05/07 12:16:20;;;;;;;14.68;9.75;;;23.90;98.50;;;;;;4963921;28;20446;-68
2023/05/07 12:18:47;;;;;;;10.48;9.07;;;23.90;97.90;;;;;;4984453;28;20454;-67
2023/05/07 12:21:14;;;;;;;10.95;9.85;;;23.40;98.00;;;;;;4965893;28;20108;-66
2023/05/07 12:23:43;;;;;;;11.95;10.25;;;23.60;98.10;;;;;;4983030;28;20057;-66
2023/05/07 12:26:10;;;;;;;11.18;9.73;;;23.20;98.30;;;;;;4965764;28;20055;-66
2023/05/07 12:28:40;;;;;;;9.95;9.05;;;23.40;99.00;;;;;;4964552;28;20058;-66
2023/05/07 12:31:07;;;;;;;11.77;10.38;;;23.30;98.00;;;;;;4980937;28;20414;-66
2023/05/07 12:33:35;;;;;;;11.82;9.38;;;23.40;98.60;;;;;;4981695;28;20141;-67
2023/05/07 12:36:07;;;;;;;10.38;9.23;;;23.30;98.30;;;;;;4983145;28;20050;-67